Beachview, Louisiana
Current Conditions -  °F | °C
As of 11:28 AM on Friday 19 Dec 2014 (Local Time) from KMSY Reporting Station
Light Rain Light Rain  
Wind Chill: 55°   Ceiling: 2300
Heat Index: 55°   Visibility: 10mi
Dew Point: 51°   Wind: 5mph
Humidity: 86%   Direction: NA
Pressure: 30.1"   Gusts: NA
Location:  29.991°N, 90.2553°W
Report Text: KMSY 191728Z VRB04KT 10SM -RA SCT009 BKN023 OVC050 13/11 A3010 RMK AO2 RAB1656 P0000 T01280106
Loading
Personal Weather Stations






























Interactive Weather Map New forecast layout! Learn more

10-Day Weather Forecast

Advertisements
Track Severe Weather on mobile